Flight Track Log - Related Links

Times and Time Zones

All times are in EDT time to prevent confusion due to time zone crossing. See the UPS1134 flight status page for this flight to view local times or setup timezone preferences in your user account.

Time Position Orientation Groundspeed Altitude Reporting Facility
EDT Latitude Longitude Course Direction KTS MPH feet Rate Location/Type
Fri 04:42:45 AM 42.7189 -73.8447 242° Southwest 192 221 2,700  Level Boston Center
Fri 04:44:15 AM 42.7294 -73.9889 276° West 269 310 6,400 2,640 Climbing Boston Center
Fri 04:45:15 AM 42.7408 -74.0856 279° West 285 328 9,300 2,901 Climbing Boston Center
Fri 04:45:46 AM 42.7542 -74.1564 284° West 306 352 10,800 1,600 Climbing Boston Center
Fri 04:46:15 AM 42.7658 -74.2133 286° West 307 353 10,900 182 Climbing Boston Center
Fri 04:46:52 AM 42.7811 -74.3044 283° West 397 457 11,000 100 Climbing Boston Center
Fri 04:47:15 AM 42.7908 -74.3442 288° West 367 422 11,000 -174 Level Boston Center
Fri 04:52:02 AM 42.9260 -75.0650 288° West 378 435 10,100 -171 Descending FlightAware ADS-B
Fri 04:53:06 AM 42.9550 -75.1950 287° West 302 348 10,000 -641 Descending FlightAware ADS-B
Fri 04:54:13 AM 42.9770 -75.3140 284° West 296 341 8,700 -1,171 Descending FlightAware ADS-B
Fri 04:54:28 AM 42.9820 -75.3430 283° West 295 339 8,400 -1,256 Descending FlightAware ADS-B
Fri 04:54:56 AM 42.9930 -75.3920 287° West 291 335 7,800 -1,227 Descending FlightAware ADS-B
Fri 04:55:12 AM 42.9980 -75.4180 285° West 288 331 7,500 -1,154 Descending FlightAware ADS-B
Fri 04:55:22 AM 43.0020 -75.4370 286° West 287 330 7,300 -1,227 Descending FlightAware ADS-B
Fri 04:55:56 AM 43.0140 -75.4960 286° West 283 326 6,600 -1,214 Descending FlightAware ADS-B
Fri 04:56:46 AM 43.0310 -75.5830 285° West 278 320 5,600 -1,176 Descending FlightAware ADS-B
Fri 04:57:38 AM 43.0480 -75.6690 285° West 269 310 4,600 -1,151 Descending FlightAware ADS-B
Fri 04:57:59 AM 43.0550 -75.7020 286° West 268 308 4,200 -1,091 Descending FlightAware ADS-B
Fri 04:58:22 AM 43.0620 -75.7400 284° West 264 304 3,800 -1,158 Descending FlightAware ADS-B
Fri 04:58:56 AM 43.0730 -75.7950 285° West 257 296 3,100 -778 Descending FlightAware ADS-B
Fri 04:59:16 AM 43.0790 -75.8260 285° West 255 293 3,100 -207 Level FlightAware ADS-B
Fri 04:59:54 AM 43.0910 -75.8850 286° West 253 291 2,900 -556 Descending FlightAware ADS-B
Fri 05:00:10 AM 43.0960 -75.9100 285° West 249 287 2,600 -629 Descending FlightAware ADS-B
Fri 05:03:24 AM 43.1090 -76.1030 275° West 119 137 700 -588 Descending FlightAware ADS-B
Fri 05:09:00 AM 43.1000 -76.1000 270° West  Level FlightAware Approximate
Fri 05:10:00 AM 43.1112 -76.1063 270° West  Level Estimated
Fri 05:11:00 AM 43.1112 -76.1063 270° West  Level Estimated
Fri 05:12:00 AM 43.1112 -76.1063 270° West  Level Estimated
Fri 05:13:00 AM 43.1112 -76.1063 270° West  Level Estimated
Fri 05:14:00 AM 43.1112 -76.1063 270° West  Level Estimated
Fri 05:15:00 AM 43.1112 -76.1063 270° West  Level Estimated
Fri 05:16:00 AM 43.1112 -76.1063 270° West  Level Estimated
Fri 05:17:00 AM 43.1112 -76.1063 270° West  Level Estimated

Login

Don't have an account? Register now (free) for customized features, flight alerts, and more!